createdAt,value
2023-05-05T00:00:21.562Z,55.81
2023-05-05T00:01:44.524Z,55.99
2023-05-05T00:02:48.235Z,56.09
2023-05-05T00:03:51.193Z,56.53
2023-05-05T00:04:54.521Z,56.57
2023-05-05T00:05:58.104Z,56.44
2023-05-05T00:07:01.059Z,56.47
2023-05-05T00:08:04.248Z,56.23
2023-05-05T00:09:07.168Z,56.44
2023-05-05T00:10:10.641Z,56.41
2023-05-05T00:11:13.512Z,56.51
2023-05-05T00:12:16.487Z,56.60
2023-05-05T00:13:21.502Z,56.17
2023-05-05T00:14:24.347Z,56.47
2023-05-05T00:15:27.580Z,56.55
2023-05-05T00:16:30.621Z,56.66
2023-05-05T00:17:33.596Z,56.56
2023-05-05T00:18:36.518Z,56.49
2023-05-05T00:19:39.384Z,56.51
2023-05-05T00:20:42.974Z,56.68
2023-05-05T00:21:45.961Z,56.62
2023-05-05T00:22:48.909Z,56.75
2023-05-05T00:23:51.793Z,56.82
2023-05-05T00:24:54.670Z,57.00
2023-05-05T00:25:57.573Z,56.99
2023-05-05T00:27:02.258Z,57.00
2023-05-05T00:28:05.591Z,56.97
2023-05-05T00:29:08.617Z,57.12
2023-05-05T00:30:11.729Z,57.18
2023-05-05T00:31:18.073Z,57.36
2023-05-05T00:32:20.986Z,57.35
2023-05-05T00:33:24.150Z,57.32
2023-05-05T00:34:27.043Z,57.29
2023-05-05T00:35:29.856Z,57.33
2023-05-05T00:36:32.721Z,57.44
2023-05-05T00:37:36.127Z,57.48
2023-05-05T00:38:39.338Z,57.46
2023-05-05T00:39:42.180Z,57.50
2023-05-05T00:40:45.050Z,57.67
2023-05-05T00:41:47.903Z,57.74
2023-05-05T00:42:50.999Z,57.72
2023-05-05T00:43:54.191Z,57.86
2023-05-05T00:44:57.516Z,57.82
2023-05-05T00:46:04.084Z,57.78
2023-05-05T00:47:08.415Z,58.35
2023-05-05T00:48:11.659Z,58.20
2023-05-05T00:49:14.758Z,58.17
2023-05-05T00:50:23.762Z,58.22
2023-05-05T00:51:28.306Z,58.22
2023-05-05T00:52:31.563Z,58.22
2023-05-05T00:53:35.016Z,58.16
2023-05-05T00:54:38.363Z,58.10
2023-05-05T00:55:41.874Z,57.91
2023-05-05T00:56:45.982Z,58.04
2023-05-05T00:57:49.460Z,58.14
2023-05-05T00:58:52.405Z,58.12
2023-05-05T00:59:56.123Z,57.99
2023-05-05T01:00:59.067Z,57.92
2023-05-05T01:02:02.024Z,58.03
2023-05-05T01:03:05.705Z,58.25
2023-05-05T01:04:09.020Z,58.10
2023-05-05T01:05:14.545Z,58.16
2023-05-05T01:06:38.960Z,58.18
2023-05-05T01:07:50.112Z,58.32
2023-05-05T01:09:09.022Z,58.37
2023-05-05T01:10:41.046Z,58.38
2023-05-05T01:11:49.781Z,58.40
2023-05-05T01:13:13.984Z,58.50
2023-05-05T01:14:20.619Z,58.47
2023-05-05T01:15:37.737Z,58.65
2023-05-05T01:16:48.347Z,58.57
2023-05-05T01:17:59.682Z,58.55
2023-05-05T01:19:16.360Z,58.62
2023-05-05T01:20:29.167Z,58.82
2023-05-05T01:21:46.738Z,58.84
2023-05-05T01:22:59.824Z,58.78
2023-05-05T01:24:24.078Z,58.73
2023-05-05T01:26:02.653Z,58.74
2023-05-05T01:27:11.638Z,58.78
2023-05-05T01:29:00.846Z,58.59
2023-05-05T01:30:25.076Z,58.83
2023-05-05T01:31:43.059Z,58.77
2023-05-05T01:32:55.437Z,58.83
2023-05-05T01:34:06.423Z,58.85
2023-05-05T01:35:20.756Z,58.60
2023-05-05T01:36:35.351Z,58.67
2023-05-05T01:38:15.748Z,58.74
2023-05-05T01:39:20.069Z,58.77
2023-05-05T01:40:26.941Z,58.72
2023-05-05T01:41:46.657Z,58.78
2023-05-05T01:42:50.552Z,58.82
2023-05-05T01:43:57.150Z,58.77
2023-05-05T01:45:03.014Z,58.87
2023-05-05T01:46:08.230Z,58.93
2023-05-05T01:47:17.017Z,59.02
2023-05-05T01:48:21.184Z,59.01
2023-05-05T01:49:24.684Z,58.83
2023-05-05T01:50:29.415Z,59.00
2023-05-05T01:51:34.930Z,59.19
2023-05-05T01:52:41.319Z,59.09
2023-05-05T01:53:47.260Z,58.92
2023-05-05T01:54:51.366Z,59.02
2023-05-05T01:55:56.121Z,58.91
2023-05-05T01:56:59.744Z,58.74
2023-05-05T01:58:05.842Z,58.73
2023-05-05T01:59:10.537Z,58.72
2023-05-05T02:00:16.894Z,58.56
2023-05-05T02:01:26.187Z,58.53
2023-05-05T02:02:30.496Z,58.64
2023-05-05T02:03:35.626Z,58.50
2023-05-05T02:04:42.759Z,58.52
2023-05-05T02:05:47.615Z,58.40
2023-05-05T02:06:53.279Z,58.46
2023-05-05T02:07:59.739Z,58.41
2023-05-05T02:09:03.730Z,58.61
2023-05-05T02:10:08.215Z,58.60
2023-05-05T02:11:12.695Z,58.70
2023-05-05T02:12:18.621Z,58.75
2023-05-05T02:13:24.789Z,58.68
2023-05-05T02:14:29.645Z,58.64
2023-05-05T02:15:34.337Z,58.78
2023-05-05T02:16:41.381Z,58.96
2023-05-05T02:17:46.704Z,59.00
2023-05-05T02:18:50.867Z,59.36
2023-05-05T02:19:55.923Z,58.99
2023-05-05T02:20:58.991Z,59.27
2023-05-05T02:22:02.575Z,59.03
2023-05-05T02:23:07.907Z,59.00
2023-05-05T02:24:11.577Z,58.82
2023-05-05T02:25:14.891Z,58.93
2023-05-05T02:26:21.815Z,59.00
2023-05-05T02:27:26.834Z,59.13
2023-05-05T02:28:42.472Z,59.06
2023-05-05T02:29:52.094Z,59.14
2023-05-05T02:31:00.174Z,59.06
2023-05-05T02:32:12.168Z,59.10
2023-05-05T02:33:19.176Z,59.19
2023-05-05T02:34:27.662Z,58.98
2023-05-05T02:35:40.440Z,59.01
2023-05-05T02:36:47.856Z,59.04
2023-05-05T02:38:04.928Z,59.28
2023-05-05T02:39:20.665Z,59.13
2023-05-05T02:40:27.543Z,59.40
2023-05-05T02:41:33.638Z,59.46
2023-05-05T02:42:46.619Z,59.49
2023-05-05T02:43:51.266Z,59.50
2023-05-05T02:44:59.779Z,59.50
2023-05-05T02:46:03.218Z,59.46
2023-05-05T02:47:07.925Z,59.51
2023-05-05T02:48:13.075Z,59.33
2023-05-05T02:49:16.236Z,59.63
2023-05-05T02:50:20.178Z,59.55
2023-05-05T02:51:30.051Z,59.59
2023-05-05T02:52:35.618Z,59.50
2023-05-05T02:53:39.201Z,59.38
2023-05-05T02:54:42.071Z,59.49
2023-05-05T02:55:57.380Z,59.60
2023-05-05T02:57:03.163Z,59.75
2023-05-05T02:58:17.303Z,59.87
2023-05-05T02:59:29.872Z,59.86
2023-05-05T03:00:50.757Z,59.73
2023-05-05T03:02:07.759Z,59.67
2023-05-05T03:03:36.708Z,59.64
2023-05-05T03:04:43.128Z,59.67
2023-05-05T03:06:05.322Z,59.72
2023-05-05T03:07:15.921Z,59.75
2023-05-05T03:08:28.487Z,59.80
2023-05-05T03:09:41.639Z,59.82
2023-05-05T03:10:51.193Z,59.91
2023-05-05T03:12:00.989Z,59.92
2023-05-05T03:13:07.622Z,60.14
2023-05-05T03:14:18.381Z,60.09
2023-05-05T03:15:26.893Z,60.28
2023-05-05T03:16:35.266Z,60.32
2023-05-05T03:17:41.523Z,60.66
2023-05-05T03:18:50.046Z,60.89
2023-05-05T03:19:53.518Z,60.96
2023-05-05T03:20:57.166Z,60.90
2023-05-05T03:22:00.800Z,60.76
2023-05-05T03:23:04.212Z,60.79
2023-05-05T03:24:19.439Z,60.95
2023-05-05T03:25:46.107Z,60.97
2023-05-05T03:26:54.772Z,61.02
2023-05-05T03:27:59.533Z,61.09
2023-05-05T03:29:02.696Z,60.93
2023-05-05T03:30:07.493Z,61.05
2023-05-05T03:31:12.697Z,60.99
2023-05-05T03:32:16.443Z,60.97
2023-05-05T03:33:19.824Z,60.76
2023-05-05T03:34:22.995Z,60.62
2023-05-05T03:35:26.012Z,60.74
2023-05-05T03:36:29.745Z,60.62
2023-05-05T03:37:33.181Z,60.58
2023-05-05T03:38:36.478Z,60.58
2023-05-05T03:39:39.784Z,60.37
2023-05-05T03:40:44.559Z,60.47
2023-05-05T03:41:49.672Z,60.41
2023-05-05T03:42:53.047Z,60.25
2023-05-05T03:43:56.149Z,60.28
2023-05-05T03:44:59.031Z,60.28
2023-05-05T03:46:02.680Z,60.39
2023-05-05T03:47:06.058Z,60.41
2023-05-05T03:48:10.158Z,60.39
2023-05-05T03:49:14.360Z,60.39
2023-05-05T03:50:18.253Z,60.34
2023-05-05T03:51:21.363Z,60.26
2023-05-05T03:52:24.421Z,60.29
2023-05-05T03:53:27.664Z,60.35
2023-05-05T03:54:31.318Z,60.45
2023-05-05T03:55:34.309Z,60.31
2023-05-05T03:56:37.502Z,60.21
2023-05-05T03:57:40.388Z,60.10
2023-05-05T03:58:43.281Z,59.96
2023-05-05T03:59:46.686Z,59.94
2023-05-05T04:00:49.726Z,60.07
2023-05-05T04:01:53.559Z,59.98
2023-05-05T04:02:56.842Z,60.06
2023-05-05T04:04:00.088Z,60.06
2023-05-05T04:05:03.039Z,60.15
2023-05-05T04:06:06.136Z,60.03
2023-05-05T04:07:09.297Z,60.10
2023-05-05T04:08:12.372Z,60.00
2023-05-05T04:09:15.275Z,59.81
2023-05-05T04:10:18.656Z,60.01
2023-05-05T04:11:22.063Z,59.80
2023-05-05T04:12:24.984Z,59.98
2023-05-05T04:13:28.453Z,59.74
2023-05-05T04:14:31.442Z,59.64
2023-05-05T04:15:34.911Z,59.58
2023-05-05T04:16:37.925Z,59.51
2023-05-05T04:17:40.831Z,59.44
2023-05-05T04:18:44.465Z,59.57
2023-05-05T04:19:47.341Z,59.58
2023-05-05T04:20:50.253Z,59.35
2023-05-05T04:21:53.200Z,59.06
2023-05-05T04:22:56.137Z,59.18
2023-05-05T04:24:00.882Z,58.83
2023-05-05T04:25:04.213Z,58.73
2023-05-05T04:26:07.267Z,58.66
2023-05-05T04:27:10.351Z,58.75
2023-05-05T04:28:13.277Z,58.45
2023-05-05T04:29:16.505Z,58.51
2023-05-05T04:30:19.513Z,58.35
2023-05-05T04:31:22.500Z,58.45
2023-05-05T04:32:25.716Z,58.39
2023-05-05T04:33:28.684Z,58.44
2023-05-05T04:34:31.822Z,58.60
2023-05-05T04:35:34.814Z,58.82
2023-05-05T04:36:38.335Z,58.80
2023-05-05T04:37:41.860Z,58.68
2023-05-05T04:38:45.156Z,58.76
2023-05-05T04:39:48.510Z,58.81
2023-05-05T04:40:51.462Z,58.79
2023-05-05T04:41:54.385Z,58.72
2023-05-05T04:42:57.508Z,58.51
2023-05-05T04:44:00.402Z,58.48
2023-05-05T04:45:03.959Z,58.59
2023-05-05T04:46:07.128Z,58.78
2023-05-05T04:47:13.203Z,58.43
2023-05-05T04:48:17.612Z,58.24
2023-05-05T04:49:20.599Z,58.10
2023-05-05T04:50:23.490Z,57.86
2023-05-05T04:51:27.748Z,57.81
2023-05-05T04:52:30.823Z,57.76
2023-05-05T04:53:33.848Z,57.52
2023-05-05T04:54:37.516Z,57.53
2023-05-05T04:55:40.611Z,57.44
2023-05-05T04:56:43.493Z,57.43
2023-05-05T04:57:46.310Z,57.17
2023-05-05T04:58:50.562Z,57.21
2023-05-05T04:59:53.530Z,57.11
2023-05-05T05:00:56.452Z,57.37
2023-05-05T05:01:59.322Z,57.65
2023-05-05T05:03:02.554Z,57.92
2023-05-05T05:04:05.742Z,57.54
2023-05-05T05:05:09.615Z,57.33
2023-05-05T05:06:12.821Z,57.48
2023-05-05T05:07:15.778Z,57.41
2023-05-05T05:08:18.971Z,57.28
2023-05-05T05:09:21.873Z,57.36
2023-05-05T05:10:24.816Z,57.40
2023-05-05T05:11:28.100Z,57.20
2023-05-05T05:12:31.220Z,57.17
2023-05-05T05:13:34.481Z,57.06
2023-05-05T05:14:38.348Z,56.86
2023-05-05T05:15:42.060Z,57.15
2023-05-05T05:16:45.200Z,57.15
2023-05-05T05:17:48.237Z,57.05
2023-05-05T05:18:51.149Z,57.21
2023-05-05T05:19:55.461Z,56.95
2023-05-05T05:20:58.636Z,56.85
2023-05-05T05:22:01.840Z,56.65
2023-05-05T05:23:05.661Z,56.48
2023-05-05T05:24:11.645Z,56.48
2023-05-05T05:25:14.705Z,56.40
2023-05-05T05:26:18.311Z,56.18
2023-05-05T05:27:21.234Z,55.93
2023-05-05T05:28:24.735Z,55.73
2023-05-05T05:29:30.966Z,55.36
2023-05-05T05:30:34.413Z,55.44
2023-05-05T05:31:37.956Z,55.53
2023-05-05T05:32:40.962Z,54.86
2023-05-05T05:33:43.993Z,54.65
2023-05-05T05:34:48.045Z,54.92
2023-05-05T05:35:52.270Z,54.77
2023-05-05T05:36:56.174Z,54.65
2023-05-05T05:37:59.179Z,54.56
2023-05-05T05:39:02.276Z,54.60
2023-05-05T05:40:06.142Z,54.63
2023-05-05T05:41:09.312Z,54.32
2023-05-05T05:42:13.042Z,54.05
2023-05-05T05:43:16.399Z,54.00
2023-05-05T05:44:19.267Z,54.08
2023-05-05T05:45:23.341Z,54.34
2023-05-05T05:46:26.260Z,54.26
2023-05-05T05:47:29.247Z,54.23
2023-05-05T05:48:32.666Z,54.09
2023-05-05T05:49:35.610Z,54.08
2023-05-05T05:50:38.516Z,53.82
2023-05-05T05:51:41.467Z,53.55
2023-05-05T05:52:44.509Z,53.49
2023-05-05T05:53:47.271Z,53.50
2023-05-05T05:54:50.299Z,53.54
2023-05-05T05:55:53.185Z,53.41
2023-05-05T05:56:56.126Z,53.20
2023-05-05T05:57:58.958Z,53.21
2023-05-05T05:59:02.777Z,53.24
2023-05-05T06:00:06.681Z,53.22
2023-05-05T06:01:16.023Z,53.05
2023-05-05T06:02:20.991Z,52.98
2023-05-05T06:03:24.433Z,52.91
2023-05-05T06:04:27.505Z,52.80
2023-05-05T06:05:31.458Z,52.67
2023-05-05T06:06:34.750Z,52.71
2023-05-05T06:07:37.720Z,52.98
2023-05-05T06:08:40.813Z,52.83
2023-05-05T06:09:47.261Z,52.63
2023-05-05T06:10:51.046Z,52.39
2023-05-05T06:11:55.320Z,52.36
2023-05-05T06:12:58.281Z,52.39
2023-05-05T06:14:01.510Z,52.39
2023-05-05T06:15:04.830Z,52.50
2023-05-05T06:16:08.012Z,52.33
2023-05-05T06:17:10.993Z,52.10
2023-05-05T06:18:13.932Z,51.71
2023-05-05T06:19:17.149Z,51.48
2023-05-05T06:20:20.375Z,51.59
2023-05-05T06:21:23.493Z,51.59
2023-05-05T06:22:27.322Z,51.31
2023-05-05T06:23:30.440Z,50.98
2023-05-05T06:24:39.990Z,51.22
2023-05-05T06:25:43.335Z,51.23
2023-05-05T06:26:46.155Z,51.06
2023-05-05T06:27:49.046Z,51.35
2023-05-05T06:28:51.909Z,51.51
2023-05-05T06:29:54.776Z,51.29
2023-05-05T06:30:58.283Z,51.24
2023-05-05T06:32:08.392Z,51.31
2023-05-05T06:33:11.361Z,50.76
2023-05-05T06:34:14.298Z,50.43
2023-05-05T06:35:17.309Z,50.12
2023-05-05T06:36:20.201Z,49.93
2023-05-05T06:37:23.215Z,49.87
2023-05-05T06:38:26.800Z,49.95
2023-05-05T06:39:29.827Z,49.53
2023-05-05T06:40:32.779Z,49.59
2023-05-05T06:41:35.700Z,49.34
2023-05-05T06:42:38.560Z,49.13
2023-05-05T06:43:45.160Z,48.76
2023-05-05T06:44:49.578Z,48.76
2023-05-05T06:45:52.415Z,48.86
2023-05-05T06:46:55.368Z,48.92
2023-05-05T06:47:58.332Z,48.83
2023-05-05T06:49:01.194Z,48.90
2023-05-05T06:50:04.490Z,48.63
2023-05-05T06:51:07.601Z,48.30
2023-05-05T06:52:10.759Z,48.05
2023-05-05T06:53:13.667Z,47.46
2023-05-05T06:54:16.745Z,47.25
2023-05-05T06:55:19.672Z,47.09
2023-05-05T06:56:24.092Z,47.06
2023-05-05T06:57:27.292Z,46.78
2023-05-05T06:58:30.148Z,46.71
2023-05-05T06:59:33.018Z,46.51
2023-05-05T07:00:35.971Z,46.07
2023-05-05T07:01:38.873Z,45.70
2023-05-05T07:02:41.864Z,45.48
2023-05-05T07:03:45.069Z,45.23
2023-05-05T07:04:48.056Z,45.08
2023-05-05T07:05:50.937Z,44.41
2023-05-05T07:06:55.336Z,44.35
2023-05-05T07:07:58.335Z,44.15
2023-05-05T07:09:01.253Z,43.75
2023-05-05T07:10:04.707Z,43.99
2023-05-05T07:11:07.552Z,44.06
2023-05-05T07:12:10.530Z,43.85
2023-05-05T07:13:16.485Z,43.31
2023-05-05T07:14:20.611Z,43.28
2023-05-05T07:15:29.156Z,43.24
2023-05-05T07:16:34.848Z,43.32
2023-05-05T07:17:37.833Z,43.36
2023-05-05T07:18:40.830Z,43.00
2023-05-05T07:19:44.354Z,42.71
2023-05-05T07:20:47.970Z,42.42
2023-05-05T07:21:52.174Z,42.32
2023-05-05T07:22:55.151Z,42.19
2023-05-05T07:23:58.076Z,41.92
2023-05-05T07:25:01.192Z,41.56
2023-05-05T07:26:04.252Z,41.36
2023-05-05T07:27:07.561Z,41.32
2023-05-05T07:28:11.125Z,41.16
2023-05-05T07:29:14.034Z,40.96
2023-05-05T07:30:18.694Z,40.49
2023-05-05T07:31:31.336Z,40.02
2023-05-05T07:32:34.816Z,40.08
2023-05-05T07:33:37.758Z,39.76
2023-05-05T07:34:40.717Z,39.74
2023-05-05T07:35:43.558Z,40.01
2023-05-05T07:36:46.966Z,40.31
2023-05-05T07:37:50.000Z,40.23
2023-05-05T07:38:52.956Z,39.86
2023-05-05T07:39:55.810Z,39.84
2023-05-05T07:40:59.058Z,39.85
2023-05-05T07:42:02.055Z,39.78
2023-05-05T07:43:05.147Z,39.60
2023-05-05T07:44:08.868Z,39.39
2023-05-05T07:45:11.741Z,39.24
2023-05-05T07:46:14.916Z,39.19
2023-05-05T07:47:17.796Z,39.05
2023-05-05T07:48:20.828Z,38.86
2023-05-05T07:49:23.715Z,38.84
2023-05-05T07:50:27.228Z,38.61
2023-05-05T07:51:33.280Z,38.37
2023-05-05T07:52:44.954Z,38.22
2023-05-05T07:53:51.028Z,38.32
2023-05-05T07:54:53.942Z,38.34
2023-05-05T07:55:56.805Z,38.21
2023-05-05T07:56:59.828Z,38.25
2023-05-05T07:58:03.855Z,38.20
2023-05-05T07:59:06.705Z,38.03
2023-05-05T08:00:11.033Z,37.83
2023-05-05T08:01:17.358Z,37.70
2023-05-05T08:02:22.090Z,37.34
2023-05-05T08:03:25.363Z,37.46
2023-05-05T08:04:28.463Z,37.32
2023-05-05T08:05:31.399Z,37.33
2023-05-05T08:06:34.648Z,36.95
2023-05-05T08:07:41.342Z,36.97
2023-05-05T08:08:44.549Z,37.12
2023-05-05T08:09:47.399Z,37.10
2023-05-05T08:10:51.701Z,37.12
2023-05-05T08:11:54.537Z,36.50
2023-05-05T08:12:57.409Z,35.98
2023-05-05T08:14:00.296Z,36.01
2023-05-05T08:15:04.350Z,36.02
2023-05-05T08:16:07.481Z,36.49
2023-05-05T08:17:11.194Z,36.45
2023-05-05T08:18:14.465Z,36.34
2023-05-05T08:19:28.083Z,35.83
2023-05-05T08:20:32.156Z,35.90
2023-05-05T08:21:34.967Z,35.95
2023-05-05T08:22:37.858Z,36.01
2023-05-05T08:23:40.863Z,36.13
2023-05-05T08:24:43.722Z,36.18
2023-05-05T08:25:46.649Z,36.09
2023-05-05T08:26:49.607Z,35.94
2023-05-05T08:27:52.645Z,36.27
2023-05-05T08:28:56.854Z,35.62
2023-05-05T08:29:59.696Z,35.55
2023-05-05T08:31:04.447Z,35.74
2023-05-05T08:32:07.416Z,35.89
2023-05-05T08:33:10.286Z,36.13
2023-05-05T08:34:13.250Z,35.92
2023-05-05T08:35:16.306Z,35.84
2023-05-05T08:36:19.275Z,35.82
2023-05-05T08:37:22.285Z,35.84
2023-05-05T08:38:25.259Z,35.77
2023-05-05T08:39:28.173Z,35.82
2023-05-05T08:40:36.574Z,36.04
2023-05-05T08:41:39.525Z,36.00
2023-05-05T08:42:42.847Z,35.98
2023-05-05T08:43:50.535Z,35.69
2023-05-05T08:44:53.407Z,35.93
2023-05-05T08:45:57.357Z,35.82
2023-05-05T08:47:01.956Z,35.74
2023-05-05T08:48:05.815Z,35.67
2023-05-05T08:49:15.386Z,35.54
2023-05-05T08:50:19.275Z,35.47
2023-05-05T08:51:25.990Z,35.11
2023-05-05T08:52:37.436Z,35.40
2023-05-05T08:53:45.924Z,35.34
2023-05-05T08:55:00.929Z,35.16
2023-05-05T08:56:05.018Z,35.24
2023-05-05T08:57:09.601Z,35.35
2023-05-05T08:58:14.007Z,35.27
2023-05-05T08:59:17.488Z,35.24
2023-05-05T09:00:21.284Z,35.31
2023-05-05T09:01:24.328Z,35.20
2023-05-05T09:02:29.988Z,35.10
2023-05-05T09:03:33.929Z,35.24
2023-05-05T09:04:37.173Z,35.32
2023-05-05T09:05:42.145Z,35.55
2023-05-05T09:06:45.115Z,34.97
2023-05-05T09:07:48.085Z,35.36
2023-05-05T09:08:51.322Z,35.44
2023-05-05T09:09:54.348Z,35.34
2023-05-05T09:10:57.485Z,35.07
2023-05-05T09:12:02.010Z,35.03
2023-05-05T09:13:05.969Z,35.17
2023-05-05T09:15:29.474Z,35.08
2023-05-05T09:16:32.339Z,35.14
2023-05-05T09:17:35.316Z,35.24
2023-05-05T09:18:38.373Z,35.43
2023-05-05T09:20:04.715Z,35.34
2023-05-05T09:21:28.128Z,35.35
2023-05-05T09:22:51.395Z,35.15
2023-05-05T09:24:11.371Z,35.10
2023-05-05T09:25:16.982Z,35.06
2023-05-05T09:26:25.364Z,35.13
2023-05-05T09:27:28.480Z,35.01
2023-05-05T09:28:32.311Z,34.89
2023-05-05T09:29:35.392Z,34.82
2023-05-05T09:30:39.756Z,34.51
2023-05-05T09:31:42.863Z,34.57
2023-05-05T09:32:51.235Z,34.55
2023-05-05T09:33:54.186Z,34.47
2023-05-05T09:34:59.175Z,34.54
2023-05-05T09:36:02.007Z,34.67
2023-05-05T09:37:06.419Z,34.71
2023-05-05T09:38:12.430Z,34.76
2023-05-05T09:39:20.338Z,34.47
2023-05-05T09:40:23.232Z,34.39
2023-05-05T09:41:43.859Z,34.30
2023-05-05T09:42:47.489Z,34.41
2023-05-05T09:43:52.137Z,34.51
2023-05-05T09:44:59.689Z,34.15
2023-05-05T09:46:07.980Z,34.08
2023-05-05T09:47:26.020Z,34.24
2023-05-05T09:48:32.456Z,34.59
2023-05-05T09:49:36.870Z,34.14
2023-05-05T09:50:44.323Z,34.19
2023-05-05T09:51:48.276Z,34.15
2023-05-05T09:52:59.235Z,34.20
2023-05-05T09:54:02.180Z,34.17
2023-05-05T09:55:05.495Z,34.11
2023-05-05T09:56:09.016Z,34.23
2023-05-05T09:57:29.487Z,34.32
2023-05-05T09:58:32.461Z,34.27
2023-05-05T09:59:35.737Z,34.39
2023-05-05T10:00:39.685Z,34.65
2023-05-05T10:01:43.878Z,34.59
2023-05-05T10:02:46.956Z,34.68
2023-05-05T10:03:52.233Z,34.80
2023-05-05T10:05:14.786Z,34.81
2023-05-05T10:06:17.852Z,34.69
2023-05-05T10:07:24.205Z,34.71
2023-05-05T10:08:28.720Z,34.54
2023-05-05T10:09:34.323Z,34.33
2023-05-05T10:10:39.995Z,34.53
2023-05-05T10:11:44.794Z,34.56
2023-05-05T10:12:49.812Z,34.33
2023-05-05T10:13:53.541Z,34.34
2023-05-05T10:14:57.608Z,34.03
2023-05-05T10:16:03.422Z,34.06
2023-05-05T10:17:09.079Z,33.89
2023-05-05T10:18:19.234Z,33.73
2023-05-05T10:19:23.899Z,33.59
2023-05-05T10:20:27.253Z,33.81
2023-05-05T10:21:34.442Z,33.87
2023-05-05T10:22:39.412Z,33.86
2023-05-05T10:23:49.642Z,33.65
2023-05-05T10:25:01.816Z,33.35
2023-05-05T10:26:07.739Z,33.28
2023-05-05T10:27:15.757Z,33.45
2023-05-05T10:28:27.123Z,33.31
2023-05-05T10:29:36.070Z,33.45
2023-05-05T10:30:44.304Z,33.42
2023-05-05T10:31:52.383Z,33.20
2023-05-05T10:33:22.292Z,33.26
2023-05-05T10:34:39.933Z,33.25
2023-05-05T10:35:46.869Z,33.05
2023-05-05T10:36:51.015Z,33.17
2023-05-05T10:37:55.529Z,33.34
2023-05-05T10:38:59.966Z,33.33
2023-05-05T10:40:03.644Z,32.93
2023-05-05T10:41:08.254Z,32.90
2023-05-05T10:42:13.430Z,33.16
2023-05-05T10:43:16.841Z,33.33
2023-05-05T10:44:19.916Z,33.50
2023-05-05T10:45:22.758Z,33.55
2023-05-05T10:46:27.372Z,33.32
2023-05-05T10:47:32.053Z,33.15
2023-05-05T10:48:42.411Z,33.24
2023-05-05T10:49:52.243Z,33.64
2023-05-05T10:51:06.243Z,33.72
2023-05-05T10:52:37.831Z,33.69
2023-05-05T10:54:10.455Z,33.59
2023-05-05T10:55:31.577Z,33.68
2023-05-05T10:56:36.137Z,33.86
2023-05-05T10:57:44.294Z,34.03
2023-05-05T10:58:58.864Z,34.10
2023-05-05T11:00:02.432Z,34.26
2023-05-05T11:01:06.980Z,34.13
2023-05-05T11:02:22.781Z,34.18
2023-05-05T11:03:26.281Z,34.22
2023-05-05T11:04:29.281Z,34.41
2023-05-05T11:05:32.556Z,34.17
2023-05-05T11:06:35.516Z,34.00
2023-05-05T11:07:38.838Z,33.80
2023-05-05T11:08:43.704Z,33.50
2023-05-05T11:09:57.767Z,33.71
2023-05-05T11:11:00.918Z,34.22
2023-05-05T11:12:05.544Z,34.25
2023-05-05T11:13:08.511Z,33.84
2023-05-05T11:14:20.071Z,33.72
2023-05-05T11:15:33.564Z,33.58
2023-05-05T11:16:49.987Z,33.49
2023-05-05T11:17:54.495Z,33.40
2023-05-05T11:18:57.521Z,33.45
2023-05-05T11:20:00.390Z,33.69
2023-05-05T11:21:04.670Z,33.57
2023-05-05T11:22:07.540Z,33.52
2023-05-05T11:23:10.394Z,33.62
2023-05-05T11:24:29.506Z,33.54
2023-05-05T11:25:41.169Z,33.61
2023-05-05T11:26:51.910Z,33.80
2023-05-05T11:28:13.743Z,33.76
2023-05-05T11:29:16.685Z,33.76
2023-05-05T11:30:19.590Z,33.78
2023-05-05T11:31:22.798Z,33.85
2023-05-05T11:32:25.711Z,33.95
2023-05-05T11:33:34.027Z,34.05
2023-05-05T11:34:49.088Z,34.21
2023-05-05T11:35:59.058Z,33.87
2023-05-05T11:37:03.390Z,33.79
2023-05-05T11:38:08.317Z,33.79
2023-05-05T11:39:35.517Z,33.88
2023-05-05T11:40:44.430Z,34.11
2023-05-05T11:42:20.277Z,34.28
2023-05-05T11:43:23.233Z,34.28
2023-05-05T11:44:33.622Z,34.50
2023-05-05T11:45:36.962Z,34.45
2023-05-05T11:46:41.256Z,34.59
2023-05-05T11:47:44.261Z,34.40
2023-05-05T11:48:53.024Z,34.34
2023-05-05T11:49:56.363Z,34.30
2023-05-05T11:51:02.407Z,34.37
2023-05-05T11:52:15.132Z,34.81
2023-05-05T11:53:19.352Z,35.08
2023-05-05T11:54:22.472Z,35.28
2023-05-05T11:55:25.646Z,35.35
2023-05-05T11:56:28.656Z,35.34
2023-05-05T11:57:31.731Z,35.43
2023-05-05T11:58:34.619Z,35.54
2023-05-05T11:59:54.899Z,35.70
2023-05-05T12:00:57.789Z,35.89
2023-05-05T12:02:00.844Z,35.92
2023-05-05T12:03:04.563Z,35.94
2023-05-05T12:04:11.459Z,36.02
2023-05-05T12:05:20.007Z,36.30
2023-05-05T12:06:23.558Z,36.44
2023-05-05T12:07:29.087Z,36.39
2023-05-05T12:08:42.203Z,36.55
2023-05-05T12:09:46.476Z,36.43
2023-05-05T12:10:49.332Z,36.57
2023-05-05T12:11:53.537Z,36.66
2023-05-05T12:12:56.596Z,36.74
2023-05-05T12:14:12.090Z,36.51
2023-05-05T12:15:14.979Z,36.50
2023-05-05T12:16:19.520Z,36.63
2023-05-05T12:17:23.452Z,36.60
2023-05-05T12:18:26.341Z,36.60
2023-05-05T12:19:33.160Z,36.70
2023-05-05T12:20:36.740Z,37.05
2023-05-05T12:21:39.579Z,37.06
2023-05-05T12:22:42.603Z,37.04
2023-05-05T12:23:46.022Z,37.02
2023-05-05T12:25:04.754Z,37.13
2023-05-05T12:26:08.110Z,37.35
2023-05-05T12:27:12.173Z,37.38
2023-05-05T12:28:15.158Z,37.38
2023-05-05T12:29:29.173Z,37.59
2023-05-05T12:30:32.157Z,37.77
2023-05-05T12:31:38.874Z,37.91
2023-05-05T12:32:42.353Z,38.05
2023-05-05T12:33:45.957Z,37.93
2023-05-05T12:34:50.548Z,37.84
2023-05-05T12:35:53.583Z,37.93
2023-05-05T12:36:56.516Z,37.93
2023-05-05T12:38:00.001Z,37.85
2023-05-05T12:39:05.341Z,37.93
2023-05-05T12:40:47.210Z,37.96
2023-05-05T12:41:50.626Z,38.20
2023-05-05T12:42:53.788Z,38.18
2023-05-05T12:43:58.487Z,38.23
2023-05-05T12:45:02.020Z,38.39
2023-05-05T12:46:06.727Z,38.63
2023-05-05T12:47:11.241Z,38.66
2023-05-05T12:48:23.471Z,38.69
2023-05-05T12:49:26.426Z,38.56
2023-05-05T12:50:31.516Z,38.43
2023-05-05T12:51:36.729Z,38.28
2023-05-05T12:52:43.163Z,38.39
2023-05-05T12:53:47.691Z,38.56
2023-05-05T12:54:56.884Z,38.71
2023-05-05T12:56:00.149Z,38.65
2023-05-05T12:57:11.490Z,38.69
2023-05-05T12:58:14.364Z,38.67
2023-05-05T12:59:23.435Z,38.72
2023-05-05T13:00:26.734Z,38.98
2023-05-05T13:01:30.227Z,38.72
2023-05-05T13:02:36.046Z,38.77
2023-05-05T13:03:39.077Z,38.97
2023-05-05T13:04:50.547Z,38.86
2023-05-05T13:05:53.529Z,38.78
2023-05-05T13:07:13.900Z,38.77
2023-05-05T13:08:18.624Z,38.94
2023-05-05T13:09:27.102Z,38.97
2023-05-05T13:10:31.268Z,39.00
2023-05-05T13:11:38.893Z,38.90
2023-05-05T13:12:42.200Z,38.88
2023-05-05T13:13:45.078Z,38.85
2023-05-05T13:14:48.034Z,38.80
2023-05-05T13:15:50.940Z,38.71
2023-05-05T13:16:53.992Z,38.55
2023-05-05T13:18:01.331Z,38.36
2023-05-05T13:19:04.509Z,38.14
2023-05-05T13:20:10.323Z,38.17
2023-05-05T13:21:13.401Z,38.22
2023-05-05T13:22:16.424Z,38.09
2023-05-05T13:23:20.001Z,37.91
2023-05-05T13:24:31.662Z,37.82
2023-05-05T13:25:41.444Z,37.91
2023-05-05T13:26:44.985Z,38.02
2023-05-05T13:27:48.600Z,37.96
2023-05-05T13:28:51.596Z,37.74
2023-05-05T13:29:54.490Z,37.58
2023-05-05T13:30:58.767Z,37.41
2023-05-05T13:32:01.683Z,37.49
2023-05-05T13:33:04.625Z,37.58
2023-05-05T13:34:07.489Z,37.46
2023-05-05T13:35:12.142Z,37.30
2023-05-05T13:36:16.308Z,37.45
2023-05-05T13:37:19.229Z,37.39
2023-05-05T13:38:22.089Z,37.41
2023-05-05T13:39:25.129Z,37.61
2023-05-05T13:40:27.953Z,37.73
2023-05-05T13:41:30.853Z,37.70
2023-05-05T13:42:33.757Z,37.83
2023-05-05T13:43:36.604Z,37.80
2023-05-05T13:44:39.467Z,37.98
2023-05-05T13:45:42.360Z,38.08
2023-05-05T13:46:45.409Z,38.17
2023-05-05T13:47:48.405Z,38.20
2023-05-05T13:48:56.031Z,38.51
2023-05-05T13:49:59.429Z,38.57
2023-05-05T13:51:02.241Z,38.63
2023-05-05T13:52:05.392Z,38.72
2023-05-05T13:53:08.620Z,38.78
2023-05-05T13:54:11.754Z,38.83
2023-05-05T13:55:14.725Z,38.96
2023-05-05T13:56:19.178Z,39.15
2023-05-05T13:57:22.117Z,39.04
2023-05-05T13:58:25.438Z,39.07
2023-05-05T13:59:28.370Z,39.21
2023-05-05T14:00:31.804Z,39.49
2023-05-05T14:01:34.897Z,39.47
2023-05-05T14:02:37.956Z,39.52
2023-05-05T14:03:40.903Z,39.73
2023-05-05T14:04:43.758Z,39.87
2023-05-05T14:05:46.832Z,40.10
2023-05-05T14:06:49.730Z,40.19
2023-05-05T14:07:54.257Z,40.04